Stanhope, New Jersey
Current Conditions -  °F | °C
As of 2:45 PM on Sunday 23 Nov 2014 (Local Time) from KMMU Reporting Station
Broken Clouds Broken Clouds  
Wind Chill: 57°   Ceiling: 20000
Heat Index: 57°   Visibility: 10mi
Dew Point: 25°   Wind: 8mph
Humidity: 29%   Direction: 200°SSW
Pressure: 30.13"   Gusts: NA
Location:  40.9°N, 74.71°W
Report Text: KMMU 231945Z 20007KT 10SM BKN200 14/M04 A3013
Loading
Personal Weather Stations






























Interactive Weather Map New forecast layout! Learn more

10-Day Weather Forecast

Advertisements
Track Severe Weather on mobile